Centennial Airport
KAPA : now visible

Airfield :











YOU CAN JOIN US ON...

 
LOGIN :

Register | Disclaimer

   EN    FR    IT 

 









Legend :    VFR   Marginal VFR   IFR   Intensive IFR   Very Intensive IFR
Visi :
Ceiling :
>= 8 km
>= 3000ft
5 to 8 km
1000 to 3000 ft
1500m to 5 km
500 to 1000 ft
800 to 1500m
200 to 500 ft
< 800m
< 200 ft
Symbols :   Thunderstorms  Fog  Heavy snow  Heavy precipitations  Wind > 20 kt







- Airport Elevation : 5885 ft


KAPA - Centennial

CURRENT METAR :
  • 181853Z VRB03KT 10SM FEW130 BKN220 34/M01 A3002 RMK AO2 SLP072 T03391006

EXPIRED METARs :
  • 181753Z VRB04KT 10SM FEW130 BKN220 33/M01 A3005 RMK AO2 SLP080 T03281006 10328 20139 58012
  • 181653Z 24008G16KT 10SM FEW130 BKN220 32/00 A3006 RMK AO2 SLP084 T03170000

TAF KAPA
Valid from the 18 at 19:00 until the 19 at 18:00 UTC


181857Z 1819/1918 VRB05KT P6SM FEW220
FM182100 24011KT P6SM FEW120 FEW220
FM190200 21010KT P6SM FEW220
FM191700 03008KT P6SM FEW120 FEW220
KZDV FIR / North America



MET'MAP, your aeronautical weather chart ! - Copyright ORBIFLY December 2007 - Disclaimer

ORBIFLY MET'MAP TEAM :

Programming & Development : Alexandra Zaïnal
Concept & Development : Baudouin d'Aumeries
Co-Development & Prog : Marc-Olivier Méhu
Technical & hardware support : Manuel Goepfert

Contact : metmap@orbifly.com




SOURCES & CREDITS :

   NOAA       Earth
Advisory